createdAt,value
2017-04-28T00:00:26.942Z,1009.04
2017-04-28T00:01:07.560Z,1009.01
2017-04-28T00:01:48.148Z,1009
2017-04-28T00:02:28.731Z,1009.01
2017-04-28T00:03:09.351Z,1009.01
2017-04-28T00:03:49.918Z,1009
2017-04-28T00:04:30.546Z,1009.05
2017-04-28T00:05:11.104Z,1009.02
2017-04-28T00:05:51.695Z,1009.04
2017-04-28T00:06:32.287Z,1009.03
2017-04-28T00:07:19.403Z,1009.02
2017-04-28T00:07:59.992Z,1009.05
2017-04-28T00:08:40.583Z,1009.02
2017-04-28T00:09:21.192Z,1009.02
2017-04-28T00:10:01.784Z,1009.01
2017-04-28T00:10:42.405Z,1008.99
2017-04-28T00:11:22.997Z,1008.97
2017-04-28T00:12:03.626Z,1008.97
2017-04-28T00:12:44.212Z,1008.96
2017-04-28T00:13:24.810Z,1008.95
2017-04-28T00:14:05.418Z,1008.93
2017-04-28T00:14:46.010Z,1008.96
2017-04-28T00:15:26.614Z,1008.97
2017-04-28T00:16:07.203Z,1008.93
2017-04-28T00:16:47.823Z,1008.97
2017-04-28T00:17:28.374Z,1008.95
2017-04-28T00:18:08.938Z,1008.94
2017-04-28T00:18:49.523Z,1008.96
2017-04-28T00:19:30.097Z,1008.94
2017-04-28T00:20:10.679Z,1008.94
2017-04-28T00:20:51.272Z,1008.97
2017-04-28T00:21:31.894Z,1008.97
2017-04-28T00:22:12.474Z,1008.99
2017-04-28T00:22:53.087Z,1008.96
2017-04-28T00:23:33.640Z,1008.96
2017-04-28T00:24:14.245Z,1008.95
2017-04-28T00:24:54.878Z,1008.95
2017-04-28T00:25:35.449Z,1008.9
2017-04-28T00:26:16.053Z,1008.9
2017-04-28T00:26:56.632Z,1008.93
2017-04-28T00:27:37.215Z,1008.89
2017-04-28T00:28:17.795Z,1008.92
2017-04-28T00:28:58.406Z,1008.9
2017-04-28T00:29:39.007Z,1008.92
2017-04-28T00:30:19.588Z,1008.88
2017-04-28T00:31:00.172Z,1008.87
2017-04-28T00:31:40.770Z,1008.84
2017-04-28T00:32:21.354Z,1008.87
2017-04-28T00:33:02.010Z,1008.88
2017-04-28T00:33:47.821Z,1008.88
2017-04-28T00:34:28.404Z,1008.86
2017-04-28T00:35:08.998Z,1008.91
2017-04-28T00:35:49.599Z,1008.89
2017-04-28T00:36:30.201Z,1008.93
2017-04-28T00:37:10.845Z,1008.97
2017-04-28T00:37:51.451Z,1008.93
2017-04-28T00:38:32.054Z,1008.93
2017-04-28T00:39:12.639Z,1008.91
2017-04-28T00:39:53.271Z,1008.91
2017-04-28T00:40:33.879Z,1008.92
2017-04-28T00:41:14.478Z,1008.93
2017-04-28T00:41:55.082Z,1008.9
2017-04-28T00:42:35.645Z,1008.99
2017-04-28T00:43:16.218Z,1008.98
2017-04-28T00:43:56.826Z,1008.94
2017-04-28T00:44:37.407Z,1008.96
2017-04-28T00:45:17.979Z,1008.94
2017-04-28T00:45:58.551Z,1008.93
2017-04-28T00:46:39.146Z,1008.93
2017-04-28T00:47:19.798Z,1008.94
2017-04-28T00:48:00.399Z,1008.96
2017-04-28T00:48:40.958Z,1008.93
2017-04-28T00:49:21.533Z,1008.92
2017-04-28T00:50:02.102Z,1008.95
2017-04-28T00:50:42.675Z,1008.94
2017-04-28T00:51:23.260Z,1008.91
2017-04-28T00:52:03.863Z,1008.96
2017-04-28T00:52:44.446Z,1008.91
2017-04-28T00:53:25.011Z,1008.9
2017-04-28T00:54:05.615Z,1008.88
2017-04-28T00:54:46.186Z,1008.9
2017-04-28T00:55:26.770Z,1008.89
2017-04-28T00:56:07.353Z,1008.91
2017-04-28T00:56:47.914Z,1008.91
2017-04-28T00:57:28.501Z,1008.93
2017-04-28T00:58:09.067Z,1008.91
2017-04-28T00:58:49.665Z,1008.91
2017-04-28T00:59:30.231Z,1008.95
2017-04-28T01:00:10.847Z,1008.95
2017-04-28T01:00:51.405Z,1008.95
2017-04-28T01:01:31.971Z,1008.97
2017-04-28T01:02:12.586Z,1008.92
2017-04-28T01:02:53.183Z,1008.95
2017-04-28T01:03:33.761Z,1008.94
2017-04-28T01:04:14.344Z,1008.97
2017-04-28T01:04:54.922Z,1008.94
2017-04-28T01:05:35.495Z,1008.92
2017-04-28T01:06:16.102Z,1008.95
2017-04-28T01:06:56.676Z,1008.9
2017-04-28T01:07:37.273Z,1008.91
2017-04-28T01:08:17.843Z,1008.87
2017-04-28T01:08:58.474Z,1008.9
2017-04-28T01:09:39.058Z,1008.88
2017-04-28T01:10:19.661Z,1008.9
2017-04-28T01:11:00.237Z,1008.91
2017-04-28T01:11:40.859Z,1008.89
2017-04-28T01:12:21.473Z,1008.88
2017-04-28T01:13:02.081Z,1008.89
2017-04-28T01:13:42.691Z,1008.9
2017-04-28T01:14:23.294Z,1008.92
2017-04-28T01:15:03.861Z,1008.88
2017-04-28T01:15:44.502Z,1008.86
2017-04-28T01:16:25.104Z,1008.89
2017-04-28T01:17:05.685Z,1008.9
2017-04-28T01:17:46.283Z,1008.92
2017-04-28T01:18:26.890Z,1008.85
2017-04-28T01:19:07.543Z,1008.91
2017-04-28T01:19:48.145Z,1008.9
2017-04-28T01:20:28.757Z,1008.94
2017-04-28T01:21:09.374Z,1008.91
2017-04-28T01:21:49.976Z,1008.89
2017-04-28T01:22:30.560Z,1008.93
2017-04-28T01:23:11.169Z,1008.94
2017-04-28T01:23:51.787Z,1008.93
2017-04-28T01:24:32.379Z,1008.92
2017-04-28T01:25:12.971Z,1008.95
2017-04-28T01:25:53.579Z,1008.93
2017-04-28T01:26:34.139Z,1008.97
2017-04-28T01:27:14.714Z,1008.93
2017-04-28T01:27:55.305Z,1008.97
2017-04-28T01:28:35.917Z,1008.89
2017-04-28T01:29:16.502Z,1008.9
2017-04-28T01:29:57.095Z,1008.88
2017-04-28T01:30:37.671Z,1008.89
2017-04-28T01:31:18.300Z,1008.9
2017-04-28T01:31:58.905Z,1008.88
2017-04-28T01:32:39.469Z,1008.91
2017-04-28T01:33:20.046Z,1008.94
2017-04-28T01:34:00.657Z,1008.9
2017-04-28T01:34:41.251Z,1008.9
2017-04-28T01:35:21.833Z,1008.88
2017-04-28T01:36:02.418Z,1008.9
2017-04-28T01:36:43.015Z,1008.89
2017-04-28T01:37:23.599Z,1008.88
2017-04-28T01:38:04.179Z,1008.84
2017-04-28T01:38:44.764Z,1008.87
2017-04-28T01:39:25.342Z,1008.84
2017-04-28T01:40:05.923Z,1008.81
2017-04-28T01:40:46.517Z,1008.86
2017-04-28T01:41:27.106Z,1008.82
2017-04-28T01:42:07.664Z,1008.84
2017-04-28T01:42:48.238Z,1008.84
2017-04-28T01:43:28.837Z,1008.81
2017-04-28T01:44:09.416Z,1008.83
2017-04-28T01:44:49.980Z,1008.85
2017-04-28T01:45:30.545Z,1008.78
2017-04-28T01:46:11.134Z,1008.85
2017-04-28T01:46:51.756Z,1008.82
2017-04-28T01:47:32.351Z,1008.82
2017-04-28T01:48:12.938Z,1008.78
2017-04-28T01:48:53.542Z,1008.84
2017-04-28T01:49:34.127Z,1008.82
2017-04-28T01:50:14.741Z,1008.76
2017-04-28T01:50:55.311Z,1008.75
2017-04-28T01:51:35.913Z,1008.75
2017-04-28T01:52:16.504Z,1008.75
2017-04-28T01:52:57.098Z,1008.72
2017-04-28T01:53:37.698Z,1008.74
2017-04-28T01:54:18.319Z,1008.71
2017-04-28T01:54:58.883Z,1008.74
2017-04-28T01:55:39.467Z,1008.79
2017-04-28T01:56:20.066Z,1008.75
2017-04-28T01:57:00.648Z,1008.7
2017-04-28T01:57:41.219Z,1008.73
2017-04-28T01:58:21.798Z,1008.76
2017-04-28T01:59:02.361Z,1008.74
2017-04-28T01:59:42.919Z,1008.73
2017-04-28T02:00:23.595Z,1008.73
2017-04-28T02:01:04.192Z,1008.72
2017-04-28T02:01:44.807Z,1008.72
2017-04-28T02:02:25.398Z,1008.72
2017-04-28T02:03:05.983Z,1008.76
2017-04-28T02:03:46.570Z,1008.73
2017-04-28T02:04:27.178Z,1008.73
2017-04-28T02:05:07.760Z,1008.72
2017-04-28T02:05:48.345Z,1008.7
2017-04-28T02:06:28.943Z,1008.72
2017-04-28T02:07:09.521Z,1008.68
2017-04-28T02:07:50.143Z,1008.71
2017-04-28T02:08:30.755Z,1008.69
2017-04-28T02:09:11.369Z,1008.69
2017-04-28T02:09:51.904Z,1008.72
2017-04-28T02:10:32.481Z,1008.71
2017-04-28T02:11:13.082Z,1008.71
2017-04-28T02:11:53.658Z,1008.68
2017-04-28T02:12:34.282Z,1008.67
2017-04-28T02:13:14.866Z,1008.69
2017-04-28T02:13:55.474Z,1008.68
2017-04-28T02:14:36.072Z,1008.68
2017-04-28T02:15:16.621Z,1008.71
2017-04-28T02:15:57.210Z,1008.68
2017-04-28T02:16:37.789Z,1008.62
2017-04-28T02:17:18.377Z,1008.63
2017-04-28T02:17:58.954Z,1008.65
2017-04-28T02:18:39.534Z,1008.61
2017-04-28T02:19:20.123Z,1008.66
2017-04-28T02:20:00.718Z,1008.62
2017-04-28T02:20:41.322Z,1008.66
2017-04-28T02:21:21.924Z,1008.63
2017-04-28T02:22:02.601Z,1008.61
2017-04-28T02:22:43.152Z,1008.6
2017-04-28T02:23:23.736Z,1008.59
2017-04-28T02:24:04.311Z,1008.59
2017-04-28T02:24:44.890Z,1008.55
2017-04-28T02:25:25.463Z,1008.56
2017-04-28T02:26:06.059Z,1008.57
2017-04-28T02:26:46.627Z,1008.49
2017-04-28T02:27:27.223Z,1008.53
2017-04-28T02:28:07.805Z,1008.48
2017-04-28T02:28:48.391Z,1008.47
2017-04-28T02:29:28.973Z,1008.5
2017-04-28T02:30:09.565Z,1008.49
2017-04-28T02:30:50.153Z,1008.49
2017-04-28T02:31:30.746Z,1008.48
2017-04-28T02:32:11.343Z,1008.48
2017-04-28T02:32:51.947Z,1008.49
2017-04-28T02:33:32.524Z,1008.44
2017-04-28T02:34:13.141Z,1008.49
2017-04-28T02:34:53.736Z,1008.46
2017-04-28T02:35:34.327Z,1008.45
2017-04-28T02:36:14.891Z,1008.49
2017-04-28T02:36:55.468Z,1008.5
2017-04-28T02:37:36.062Z,1008.47
2017-04-28T02:38:16.624Z,1008.49
2017-04-28T02:38:57.224Z,1008.47
2017-04-28T02:39:37.832Z,1008.47
2017-04-28T02:40:18.400Z,1008.53
2017-04-28T02:40:59.016Z,1008.45
2017-04-28T02:41:39.605Z,1008.46
2017-04-28T02:42:20.177Z,1008.51
2017-04-28T02:43:00.751Z,1008.47
2017-04-28T02:43:41.351Z,1008.46
2017-04-28T02:44:21.918Z,1008.46
2017-04-28T02:45:02.523Z,1008.45
2017-04-28T02:45:43.110Z,1008.43
2017-04-28T02:46:23.680Z,1008.46
2017-04-28T02:47:04.242Z,1008.47
2017-04-28T02:47:44.845Z,1008.45
2017-04-28T02:48:25.450Z,1008.43
2017-04-28T02:49:06.027Z,1008.44
2017-04-28T02:49:46.605Z,1008.47
2017-04-28T02:50:27.184Z,1008.47
2017-04-28T02:51:07.788Z,1008.43
2017-04-28T02:51:48.361Z,1008.47
2017-04-28T02:52:28.944Z,1008.47
2017-04-28T02:53:09.554Z,1008.46
2017-04-28T02:53:50.153Z,1008.48
2017-04-28T02:54:30.823Z,1008.45
2017-04-28T02:55:11.490Z,1008.45
2017-04-28T02:55:52.235Z,1008.48
2017-04-28T02:56:32.867Z,1008.44
2017-04-28T02:57:13.603Z,1008.46
2017-04-28T02:57:54.403Z,1008.46
2017-04-28T02:58:35.026Z,1008.48
2017-04-28T02:59:15.655Z,1008.44
2017-04-28T02:59:56.275Z,1008.48
2017-04-28T03:00:36.869Z,1008.45
2017-04-28T03:01:17.458Z,1008.41
2017-04-28T03:01:58.107Z,1008.41
2017-04-28T03:02:38.847Z,1008.44
2017-04-28T03:03:19.871Z,1008.46
2017-04-28T03:04:00.836Z,1008.43
2017-04-28T03:04:41.371Z,1008.42
2017-04-28T03:05:22.001Z,1008.46
2017-04-28T03:06:02.595Z,1008.45
2017-04-28T03:06:43.159Z,1008.45
2017-04-28T03:07:23.744Z,1008.45
2017-04-28T03:08:04.329Z,1008.47
2017-04-28T03:08:44.913Z,1008.39
2017-04-28T03:09:25.510Z,1008.41
2017-04-28T03:10:06.082Z,1008.39
2017-04-28T03:10:46.679Z,1008.39
2017-04-28T03:11:27.259Z,1008.34
2017-04-28T03:12:07.842Z,1008.36
2017-04-28T03:12:48.460Z,1008.34
2017-04-28T03:13:29.019Z,1008.35
2017-04-28T03:14:09.600Z,1008.37
2017-04-28T03:14:50.180Z,1008.31
2017-04-28T03:15:30.769Z,1008.29
2017-04-28T03:16:11.352Z,1008.27
2017-04-28T03:16:51.959Z,1008.27
2017-04-28T03:17:32.524Z,1008.28
2017-04-28T03:18:13.121Z,1008.23
2017-04-28T03:18:53.701Z,1008.27
2017-04-28T03:19:34.288Z,1008.24
2017-04-28T03:20:14.841Z,1008.27
2017-04-28T03:20:55.447Z,1008.24
2017-04-28T03:21:36.043Z,1008.18
2017-04-28T03:22:16.626Z,1008.24
2017-04-28T03:22:57.245Z,1008.25
2017-04-28T03:23:37.836Z,1008.21
2017-04-28T03:24:18.441Z,1008.17
2017-04-28T03:24:59.030Z,1008.21
2017-04-28T03:25:39.595Z,1008.2
2017-04-28T03:26:20.820Z,1008.21
2017-04-28T03:27:01.634Z,1008.19
2017-04-28T03:27:42.280Z,1008.21
2017-04-28T03:28:22.970Z,1008.22
2017-04-28T03:29:03.625Z,1008.19
2017-04-28T03:29:44.199Z,1008.2
2017-04-28T03:30:24.789Z,1008.19
2017-04-28T03:31:05.360Z,1008.21
2017-04-28T03:31:45.945Z,1008.23
2017-04-28T03:32:26.535Z,1008.24
2017-04-28T03:33:07.108Z,1008.2
2017-04-28T03:33:47.706Z,1008.22
2017-04-28T03:34:28.287Z,1008.21
2017-04-28T03:35:08.904Z,1008.23
2017-04-28T03:35:49.486Z,1008.23
2017-04-28T03:36:30.058Z,1008.25
2017-04-28T03:37:10.633Z,1008.25
2017-04-28T03:37:51.222Z,1008.24
2017-04-28T03:38:31.806Z,1008.24
2017-04-28T03:39:12.419Z,1008.28
2017-04-28T03:39:52.979Z,1008.25
2017-04-28T03:40:33.557Z,1008.27
2017-04-28T03:41:14.123Z,1008.24
2017-04-28T03:41:54.714Z,1008.24
2017-04-28T03:42:35.278Z,1008.25
2017-04-28T03:43:15.896Z,1008.25
2017-04-28T03:43:56.515Z,1008.22
2017-04-28T03:44:37.079Z,1008.21
2017-04-28T03:45:17.683Z,1008.22
2017-04-28T03:45:58.283Z,1008.26
2017-04-28T03:46:38.894Z,1008.28
2017-04-28T03:47:19.535Z,1008.27
2017-04-28T03:48:00.141Z,1008.25
2017-04-28T03:48:40.722Z,1008.29
2017-04-28T03:49:21.342Z,1008.24
2017-04-28T03:50:01.919Z,1008.24
2017-04-28T03:50:42.523Z,1008.25
2017-04-28T03:51:23.091Z,1008.24
2017-04-28T03:52:03.667Z,1008.24
2017-04-28T03:52:44.254Z,1008.24
2017-04-28T03:53:24.909Z,1008.23
2017-04-28T03:54:05.505Z,1008.23
2017-04-28T03:54:46.175Z,1008.26
2017-04-28T03:55:26.736Z,1008.26
2017-04-28T03:56:07.329Z,1008.23
2017-04-28T03:56:47.925Z,1008.25
2017-04-28T03:57:28.513Z,1008.23
2017-04-28T03:58:09.088Z,1008.24
2017-04-28T03:58:49.700Z,1008.24
2017-04-28T03:59:30.905Z,1008.24
2017-04-28T04:01:23.802Z,1008.26
2017-04-28T04:02:04.416Z,1008.22
2017-04-28T04:02:44.996Z,1008.2
2017-04-28T04:03:25.613Z,1008.23
2017-04-28T04:04:06.254Z,1008.24
2017-04-28T04:04:49.513Z,1008.23
2017-04-28T04:05:30.094Z,1008.28
2017-04-28T04:06:10.680Z,1008.26
2017-04-28T04:06:51.282Z,1008.24
2017-04-28T04:07:31.857Z,1008.27
2017-04-28T04:08:12.434Z,1008.27
2017-04-28T04:08:53.043Z,1008.27
2017-04-28T04:09:33.602Z,1008.31
2017-04-28T04:10:14.195Z,1008.29
2017-04-28T04:10:54.813Z,1008.29
2017-04-28T04:13:09.158Z,1008.29
2017-04-28T04:15:01.852Z,1008.34
2017-04-28T04:15:42.417Z,1008.27
2017-04-28T04:16:22.985Z,1008.29
2017-04-28T04:17:03.560Z,1008.29
2017-04-28T04:17:44.166Z,1008.29
2017-04-28T04:18:24.741Z,1008.29
2017-04-28T04:19:05.385Z,1008.24
2017-04-28T04:19:45.983Z,1008.27
2017-04-28T04:20:26.572Z,1008.28
2017-04-28T04:21:07.156Z,1008.22
2017-04-28T04:21:47.734Z,1008.24
2017-04-28T04:22:28.334Z,1008.27
2017-04-28T04:23:08.918Z,1008.27
2017-04-28T04:23:49.547Z,1008.26
2017-04-28T04:24:30.122Z,1008.26
2017-04-28T04:25:10.721Z,1008.25
2017-04-28T04:25:51.303Z,1008.26
2017-04-28T04:26:31.896Z,1008.28
2017-04-28T04:27:12.493Z,1008.29
2017-04-28T04:27:53.080Z,1008.21
2017-04-28T04:28:33.644Z,1008.22
2017-04-28T04:29:14.211Z,1008.26
2017-04-28T04:29:54.791Z,1008.28
2017-04-28T04:30:35.365Z,1008.23
2017-04-28T04:31:15.965Z,1008.22
2017-04-28T04:31:57.044Z,1008.25
2017-04-28T04:32:37.620Z,1008.26
2017-04-28T04:33:18.206Z,1008.29
2017-04-28T04:33:58.771Z,1008.3
2017-04-28T04:34:39.407Z,1008.26
2017-04-28T04:35:19.969Z,1008.28
2017-04-28T04:36:00.576Z,1008.29
2017-04-28T04:36:41.179Z,1008.31
2017-04-28T04:37:21.901Z,1008.3
2017-04-28T04:38:02.531Z,1008.32
2017-04-28T04:38:43.074Z,1008.32
2017-04-28T04:39:23.725Z,1008.29
2017-04-28T04:40:04.283Z,1008.29
2017-04-28T04:40:44.882Z,1008.31
2017-04-28T04:41:25.547Z,1008.31
2017-04-28T04:42:06.191Z,1008.25
2017-04-28T04:42:46.790Z,1008.28
2017-04-28T04:43:27.423Z,1008.24
2017-04-28T04:44:07.998Z,1008.31
2017-04-28T04:44:48.621Z,1008.3
2017-04-28T04:45:29.209Z,1008.28
2017-04-28T04:46:09.827Z,1008.35
2017-04-28T04:46:50.412Z,1008.29
2017-04-28T04:47:31.069Z,1008.31
2017-04-28T04:48:11.606Z,1008.28
2017-04-28T04:48:52.273Z,1008.25
2017-04-28T04:49:32.876Z,1008.26
2017-04-28T04:50:13.450Z,1008.27
2017-04-28T04:50:54.029Z,1008.27
2017-04-28T04:51:34.647Z,1008.25
2017-04-28T04:52:15.247Z,1008.24
2017-04-28T04:52:55.817Z,1008.22
2017-04-28T04:53:36.385Z,1008.23
2017-04-28T04:54:16.979Z,1008.23
2017-04-28T04:54:57.578Z,1008.23
2017-04-28T04:55:38.191Z,1008.24
2017-04-28T04:56:18.814Z,1008.23
2017-04-28T04:56:59.409Z,1008.23
2017-04-28T04:57:39.989Z,1008.23
2017-04-28T04:58:20.581Z,1008.26
2017-04-28T05:00:38.775Z,1008.25
2017-04-28T05:01:19.384Z,1008.24
2017-04-28T05:02:00.045Z,1008.25
2017-04-28T05:02:40.634Z,1008.24
2017-04-28T05:03:21.209Z,1008.24
2017-04-28T05:04:01.803Z,1008.26
2017-04-28T05:04:42.383Z,1008.22
2017-04-28T05:05:23.115Z,1008.23
2017-04-28T05:06:03.677Z,1008.22
2017-04-28T05:06:44.281Z,1008.27
2017-04-28T05:07:24.845Z,1008.19
2017-04-28T05:08:05.427Z,1008.19
2017-04-28T05:08:45.996Z,1008.21
2017-04-28T05:09:26.575Z,1008.22
2017-04-28T05:10:07.178Z,1008.19
2017-04-28T05:10:47.771Z,1008.14
2017-04-28T05:11:28.361Z,1008.16
2017-04-28T05:12:08.958Z,1008.16
2017-04-28T05:12:49.547Z,1008.18
2017-04-28T05:13:30.154Z,1008.17
2017-04-28T05:14:10.732Z,1008.2
2017-04-28T05:14:51.307Z,1008.22
2017-04-28T05:15:31.933Z,1008.21
2017-04-28T05:16:12.520Z,1008.2
2017-04-28T05:16:53.106Z,1008.2
2017-04-28T05:17:33.718Z,1008.17
2017-04-28T05:18:14.327Z,1008.19
2017-04-28T05:18:54.916Z,1008.18
2017-04-28T05:19:35.508Z,1008.15
2017-04-28T05:20:16.093Z,1008.19
2017-04-28T05:20:56.675Z,1008.12
2017-04-28T05:21:37.303Z,1008.11
2017-04-28T05:22:17.884Z,1008.09
2017-04-28T05:22:58.464Z,1008.15
2017-04-28T05:23:39.073Z,1008.1
2017-04-28T05:24:19.668Z,1008.15
2017-04-28T05:25:00.252Z,1008.15
2017-04-28T05:25:40.912Z,1008.13
2017-04-28T05:26:21.495Z,1008.17
2017-04-28T05:27:02.092Z,1008.13
2017-04-28T05:27:42.681Z,1008.16
2017-04-28T05:28:23.257Z,1008.16
2017-04-28T05:29:03.872Z,1008.17
2017-04-28T05:29:44.470Z,1008.18
2017-04-28T05:30:25.098Z,1008.16
2017-04-28T05:31:05.691Z,1008.15
2017-04-28T05:31:46.262Z,1008.18
2017-04-28T05:32:26.858Z,1008.15
2017-04-28T05:33:07.479Z,1008.17
2017-04-28T05:33:48.086Z,1008.14
2017-04-28T05:34:28.651Z,1008.13
2017-04-28T05:35:09.254Z,1008.18
2017-04-28T05:35:49.841Z,1008.11
2017-04-28T05:36:30.415Z,1008.1
2017-04-28T05:37:11.005Z,1008.1
2017-04-28T05:37:51.589Z,1008.05
2017-04-28T05:38:32.188Z,1008.13
2017-04-28T05:39:12.903Z,1008.13
2017-04-28T05:41:25.735Z,1008.13
2017-04-28T05:42:06.386Z,1008.12
2017-04-28T05:42:47.008Z,1008.12
2017-04-28T05:43:27.601Z,1008.16
2017-04-28T05:44:08.168Z,1008.16
2017-04-28T05:46:50.909Z,1008.16
2017-04-28T05:47:31.483Z,1008.13
2017-04-28T05:48:12.176Z,1008.13
2017-04-28T05:48:52.750Z,1008.13
2017-04-28T05:49:33.334Z,1008.19
2017-04-28T05:50:13.920Z,1008.26
2017-04-28T05:50:54.493Z,1008.24
2017-04-28T05:51:35.083Z,1008.26
2017-04-28T05:52:15.709Z,1008.21
2017-04-28T05:52:56.323Z,1008.26
2017-04-28T05:53:36.950Z,1008.31
2017-04-28T05:54:17.560Z,1008.3
2017-04-28T05:54:58.214Z,1008.25
2017-04-28T05:55:38.810Z,1008.31
2017-04-28T05:56:19.416Z,1008.24
2017-04-28T05:56:59.982Z,1008.29
2017-04-28T05:57:40.564Z,1008.32
2017-04-28T05:58:21.138Z,1008.35
2017-04-28T05:59:01.737Z,1008.36
2017-04-28T05:59:42.323Z,1008.34
2017-04-28T06:00:22.939Z,1008.37
2017-04-28T06:01:03.524Z,1008.34
2017-04-28T06:01:44.104Z,1008.34
2017-04-28T06:02:24.681Z,1008.35
2017-04-28T06:03:05.274Z,1008.4
2017-04-28T06:03:45.853Z,1008.39
2017-04-28T06:04:26.445Z,1008.47
2017-04-28T06:05:07.085Z,1008.42
2017-04-28T06:05:47.676Z,1008.43
2017-04-28T06:06:28.283Z,1008.41
2017-04-28T06:07:08.870Z,1008.44
2017-04-28T06:07:49.502Z,1008.41
2017-04-28T06:08:30.106Z,1008.45
2017-04-28T06:09:10.798Z,1008.49
2017-04-28T06:09:51.373Z,1008.44
2017-04-28T06:10:31.974Z,1008.46
2017-04-28T06:11:12.563Z,1008.47
2017-04-28T06:11:53.170Z,1008.55
2017-04-28T06:12:33.775Z,1008.55
2017-04-28T06:13:14.353Z,1008.51
2017-04-28T06:13:54.950Z,1008.55
2017-04-28T06:14:35.540Z,1008.58
2017-04-28T06:15:16.135Z,1008.61
2017-04-28T06:15:56.743Z,1008.6
2017-04-28T06:16:37.387Z,1008.55
2017-04-28T06:17:18.038Z,1008.6
2017-04-28T06:17:58.644Z,1008.57
2017-04-28T06:18:39.246Z,1008.58
2017-04-28T06:19:19.868Z,1008.56
2017-04-28T06:20:00.449Z,1008.6
2017-04-28T06:20:41.104Z,1008.58
2017-04-28T06:21:21.728Z,1008.62
2017-04-28T06:22:02.343Z,1008.61
2017-04-28T06:22:42.980Z,1008.61
2017-04-28T06:23:23.556Z,1008.64
2017-04-28T06:24:04.194Z,1008.68
2017-04-28T06:24:44.819Z,1008.65
2017-04-28T06:25:25.418Z,1008.67
2017-04-28T06:26:06.090Z,1008.64
2017-04-28T06:26:46.658Z,1008.69
2017-04-28T06:27:27.245Z,1008.74
2017-04-28T06:28:07.925Z,1008.72
2017-04-28T06:28:48.567Z,1008.73
2017-04-28T06:29:29.214Z,1008.71
2017-04-28T06:30:09.779Z,1008.71
2017-04-28T06:30:50.396Z,1008.74
2017-04-28T06:31:30.986Z,1008.74
2017-04-28T06:32:11.654Z,1008.73
2017-04-28T06:32:52.224Z,1008.72
2017-04-28T06:33:32.804Z,1008.73
2017-04-28T06:34:13.419Z,1008.72
2017-04-28T06:34:54.108Z,1008.7
2017-04-28T06:35:34.860Z,1008.71
2017-04-28T06:36:15.472Z,1008.72
2017-04-28T06:36:56.088Z,1008.75
2017-04-28T06:37:36.672Z,1008.72
2017-04-28T06:38:17.254Z,1008.71
2017-04-28T06:38:57.850Z,1008.69
2017-04-28T06:39:38.437Z,1008.75
2017-04-28T06:40:19.075Z,1008.73
2017-04-28T06:40:59.736Z,1008.73
2017-04-28T06:41:40.355Z,1008.72
2017-04-28T06:42:20.922Z,1008.75
2017-04-28T06:43:01.506Z,1008.74
2017-04-28T06:43:42.102Z,1008.74
2017-04-28T06:44:22.697Z,1008.75
2017-04-28T06:45:03.313Z,1008.79
2017-04-28T06:45:43.939Z,1008.78
2017-04-28T06:46:24.516Z,1008.75
2017-04-28T06:47:05.163Z,1008.73
2017-04-28T06:47:45.764Z,1008.74
2017-04-28T06:48:26.384Z,1008.71
2017-04-28T06:49:07.093Z,1008.71
2017-04-28T06:49:47.865Z,1008.76
2017-04-28T06:50:28.448Z,1008.72
2017-04-28T06:51:09.054Z,1008.74
2017-04-28T06:51:49.648Z,1008.7
2017-04-28T06:52:30.300Z,1008.73
2017-04-28T06:53:10.897Z,1008.68
2017-04-28T06:53:51.500Z,1008.67
2017-04-28T06:54:32.123Z,1008.67
2017-04-28T06:55:12.905Z,1008.71
2017-04-28T06:55:53.504Z,1008.67
2017-04-28T06:56:34.118Z,1008.67
2017-04-28T06:57:14.795Z,1008.65
2017-04-28T06:57:55.474Z,1008.64
2017-04-28T06:58:36.065Z,1008.66
2017-04-28T06:59:16.683Z,1008.61
2017-04-28T06:59:57.408Z,1008.63
2017-04-28T07:00:38.080Z,1008.6
2017-04-28T07:01:19.449Z,1008.63
2017-04-28T07:02:00.058Z,1008.67
2017-04-28T07:02:40.674Z,1008.66
2017-04-28T07:03:21.307Z,1008.68
2017-04-28T07:04:01.971Z,1008.64
2017-04-28T07:04:42.593Z,1008.65
2017-04-28T07:05:23.251Z,1008.66
2017-04-28T07:06:03.954Z,1008.64
2017-04-28T07:06:44.595Z,1008.64
2017-04-28T07:07:25.199Z,1008.68
2017-04-28T07:08:05.788Z,1008.64
2017-04-28T07:08:46.448Z,1008.66
2017-04-28T07:09:27.060Z,1008.67
2017-04-28T07:10:07.639Z,1008.66
2017-04-28T07:10:48.264Z,1008.65
2017-04-28T07:11:28.840Z,1008.66
2017-04-28T07:12:09.584Z,1008.65
2017-04-28T07:12:50.150Z,1008.68
2017-04-28T07:13:30.783Z,1008.7
2017-04-28T07:14:11.367Z,1008.66
2017-04-28T07:14:51.982Z,1008.72
2017-04-28T07:15:32.660Z,1008.71
2017-04-28T07:16:13.343Z,1008.67
2017-04-28T07:16:53.941Z,1008.68
2017-04-28T07:17:34.594Z,1008.68
2017-04-28T07:18:15.199Z,1008.68
2017-04-28T07:18:55.878Z,1008.69
2017-04-28T07:19:36.481Z,1008.68
2017-04-28T07:20:17.107Z,1008.69
2017-04-28T07:20:57.793Z,1008.66
2017-04-28T07:21:38.415Z,1008.65
2017-04-28T07:22:19.013Z,1008.64
2017-04-28T07:22:59.612Z,1008.65
2017-04-28T07:23:40.216Z,1008.66
2017-04-28T07:24:20.870Z,1008.7
2017-04-28T07:25:01.451Z,1008.65
2017-04-28T07:25:42.028Z,1008.66
2017-04-28T07:26:22.631Z,1008.65
2017-04-28T07:27:03.663Z,1008.67
2017-04-28T07:27:44.230Z,1008.68
2017-04-28T07:28:24.897Z,1008.67
2017-04-28T07:29:05.498Z,1008.66
2017-04-28T07:29:46.084Z,1008.68
2017-04-28T07:30:26.713Z,1008.66
2017-04-28T07:31:07.299Z,1008.65
2017-04-28T07:31:47.889Z,1008.61
2017-04-28T07:32:28.529Z,1008.62
2017-04-28T07:33:09.113Z,1008.61
2017-04-28T07:33:49.699Z,1008.65
2017-04-28T07:34:30.337Z,1008.6
2017-04-28T07:35:10.937Z,1008.65
2017-04-28T07:35:51.588Z,1008.61
2017-04-28T07:36:32.168Z,1008.59
2017-04-28T07:37:12.799Z,1008.62
2017-04-28T07:37:53.412Z,1008.64
2017-04-28T07:38:33.971Z,1008.67
2017-04-28T07:39:14.585Z,1008.66
2017-04-28T07:39:55.202Z,1008.65
2017-04-28T07:40:35.889Z,1008.68
2017-04-28T07:41:16.512Z,1008.66
2017-04-28T07:41:57.149Z,1008.66
2017-04-28T07:42:37.719Z,1008.64
2017-04-28T07:43:18.405Z,1008.58
2017-04-28T07:43:59.090Z,1008.59
2017-04-28T07:44:39.721Z,1008.57
2017-04-28T07:45:20.467Z,1008.52
2017-04-28T07:46:01.091Z,1008.55
2017-04-28T07:46:41.703Z,1008.55
2017-04-28T07:47:22.374Z,1008.54
2017-04-28T07:48:02.982Z,1008.55
2017-04-28T07:48:43.591Z,1008.54
2017-04-28T07:49:24.216Z,1008.52
2017-04-28T07:50:04.962Z,1008.48
2017-04-28T07:50:45.565Z,1008.55
2017-04-28T07:51:26.237Z,1008.5
2017-04-28T07:52:06.805Z,1008.49
2017-04-28T07:52:47.435Z,1008.5
2017-04-28T07:53:28.079Z,1008.47
2017-04-28T07:54:08.708Z,1008.53
2017-04-28T07:54:49.374Z,1008.48
2017-04-28T07:55:30.166Z,1008.48
2017-04-28T07:56:11.026Z,1008.54
2017-04-28T07:56:51.627Z,1008.53
2017-04-28T07:57:32.256Z,1008.51
2017-04-28T07:58:12.853Z,1008.52
2017-04-28T07:58:53.479Z,1008.53
2017-04-28T07:59:34.063Z,1008.49
2017-04-28T08:00:14.726Z,1008.46
2017-04-28T08:00:55.332Z,1008.46
2017-04-28T08:01:35.956Z,1008.43
2017-04-28T08:02:16.563Z,1008.43
2017-04-28T08:02:57.225Z,1008.4
2017-04-28T08:03:37.817Z,1008.4
2017-04-28T08:04:18.437Z,1008.41
2017-04-28T08:04:59.008Z,1008.43
2017-04-28T08:05:39.672Z,1008.46
2017-04-28T08:06:20.268Z,1008.46
2017-04-28T08:07:00.838Z,1008.45
2017-04-28T08:07:41.630Z,1008.42
2017-04-28T08:08:22.903Z,1008.4
2017-04-28T08:09:03.559Z,1008.44
2017-04-28T08:09:44.300Z,1008.38
2017-04-28T08:10:25.127Z,1008.44
2017-04-28T08:11:05.800Z,1008.42
2017-04-28T08:11:46.433Z,1008.41
2017-04-28T08:12:27.099Z,1008.38
2017-04-28T08:13:07.829Z,1008.34
2017-04-28T08:13:48.630Z,1008.35
2017-04-28T08:14:29.297Z,1008.37
2017-04-28T08:15:09.974Z,1008.35
2017-04-28T08:15:50.744Z,1008.35
2017-04-28T08:16:31.462Z,1008.31
2017-04-28T08:17:12.076Z,1008.31
2017-04-28T08:17:53.517Z,1008.33
2017-04-28T08:18:34.159Z,1008.31
2017-04-28T08:19:14.770Z,1008.3
2017-04-28T08:19:55.560Z,1008.3
2017-04-28T08:20:36.452Z,1008.29
2017-04-28T08:21:17.743Z,1008.27
2017-04-28T08:21:58.343Z,1008.29